createdAt,value
2022-12-22T00:00:14.681Z,4.10
2022-12-22T00:01:14.697Z,3.50
2022-12-22T00:02:14.984Z,3.60
2022-12-22T00:03:14.877Z,3.90
2022-12-22T00:04:14.762Z,3.80
2022-12-22T00:05:14.654Z,3.80
2022-12-22T00:06:14.724Z,3.50
2022-12-22T00:07:14.580Z,3.40
2022-12-22T00:08:14.564Z,3.70
2022-12-22T00:09:14.633Z,3.60
2022-12-22T00:10:14.565Z,3.50
2022-12-22T00:11:14.559Z,3.40
2022-12-22T00:12:14.521Z,3.40
2022-12-22T00:13:14.482Z,3.50
2022-12-22T00:14:14.545Z,3.40
2022-12-22T00:15:14.483Z,3.60
2022-12-22T00:16:14.476Z,3.80
2022-12-22T00:17:14.514Z,3.60
2022-12-22T00:18:14.448Z,3.50
2022-12-22T00:19:14.438Z,3.50
2022-12-22T00:20:18.522Z,3.70
2022-12-22T00:21:15.510Z,3.20
2022-12-22T00:22:14.404Z,3.60
2022-12-22T00:23:14.386Z,3.80
2022-12-22T00:24:14.391Z,3.20
2022-12-22T00:25:14.396Z,3.00
2022-12-22T00:26:15.337Z,3.40
2022-12-22T00:27:14.396Z,3.30
2022-12-22T00:28:15.124Z,3.30
2022-12-22T00:29:14.393Z,4.00
2022-12-22T00:30:14.354Z,3.20
2022-12-22T00:31:14.432Z,3.70
2022-12-22T00:32:14.335Z,3.20
2022-12-22T00:33:14.318Z,3.10
2022-12-22T00:34:14.289Z,3.10
2022-12-22T00:35:14.267Z,3.40
2022-12-22T00:36:14.328Z,3.40
2022-12-22T00:37:14.260Z,3.30
2022-12-22T00:38:14.236Z,3.60
2022-12-22T00:39:14.265Z,3.20
2022-12-22T00:40:14.369Z,3.10
2022-12-22T00:41:14.253Z,3.20
2022-12-22T00:42:14.245Z,3.30
2022-12-22T00:43:14.225Z,3.30
2022-12-22T00:44:14.191Z,3.10
2022-12-22T00:45:14.239Z,2.80
2022-12-22T00:46:14.385Z,2.70
2022-12-22T00:47:14.282Z,2.80
2022-12-22T00:48:14.245Z,4.90
2022-12-22T00:49:14.172Z,2.80
2022-12-22T00:50:14.136Z,2.40
2022-12-22T00:51:14.120Z,6.20
2022-12-22T00:52:14.180Z,4.60
2022-12-22T00:53:14.116Z,3.90
2022-12-22T00:54:14.095Z,2.70
2022-12-22T00:55:14.074Z,2.80
2022-12-22T00:56:14.086Z,2.70
2022-12-22T00:57:14.136Z,2.40
2022-12-22T00:58:14.052Z,2.50
2022-12-22T00:59:14.055Z,2.60
2022-12-22T01:00:14.089Z,2.20
2022-12-22T01:01:14.128Z,1.90
2022-12-22T01:02:14.144Z,2.10
2022-12-22T01:03:14.069Z,2.30
2022-12-22T01:04:13.981Z,2.20
2022-12-22T01:05:13.990Z,2.10
2022-12-22T01:06:13.988Z,2.20
2022-12-22T01:07:14.048Z,2.30
2022-12-22T01:08:13.971Z,2.10
2022-12-22T01:09:13.956Z,2.70
2022-12-22T01:10:13.977Z,2.20
2022-12-22T01:11:13.939Z,2.00
2022-12-22T01:12:13.976Z,2.30
2022-12-22T01:13:13.858Z,2.30
2022-12-22T01:14:13.917Z,2.30
2022-12-22T01:15:13.886Z,2.30
2022-12-22T01:16:13.979Z,2.20
2022-12-22T01:17:13.910Z,2.10
2022-12-22T01:18:13.862Z,2.40
2022-12-22T01:19:13.895Z,1.90
2022-12-22T01:20:13.851Z,2.10
2022-12-22T01:21:13.848Z,2.40
2022-12-22T01:22:13.813Z,2.10
2022-12-22T01:23:13.790Z,2.10
2022-12-22T01:24:14.008Z,2.20
2022-12-22T01:25:13.776Z,2.10
2022-12-22T01:26:13.787Z,2.40
2022-12-22T01:27:13.801Z,2.20
2022-12-22T01:28:13.785Z,1.80
2022-12-22T01:29:13.754Z,1.90
2022-12-22T01:30:13.758Z,2.10
2022-12-22T01:31:13.908Z,2.10
2022-12-22T01:32:13.750Z,1.90
2022-12-22T01:33:13.785Z,1.60
2022-12-22T01:34:13.668Z,1.80
2022-12-22T01:35:13.700Z,1.90
2022-12-22T01:36:13.713Z,2.00
2022-12-22T01:37:13.703Z,1.90
2022-12-22T01:38:13.725Z,2.30
2022-12-22T01:39:13.656Z,1.60
2022-12-22T01:40:13.675Z,2.20
2022-12-22T01:41:13.654Z,2.30
2022-12-22T01:42:13.637Z,1.70
2022-12-22T01:43:13.606Z,1.90
2022-12-22T01:44:13.572Z,1.70
2022-12-22T01:45:13.605Z,2.30
2022-12-22T01:46:13.600Z,1.70
2022-12-22T01:47:13.662Z,1.90
2022-12-22T01:48:13.605Z,1.90
2022-12-22T01:49:13.517Z,2.30
2022-12-22T01:50:13.518Z,2.10
2022-12-22T01:51:13.543Z,2.20
2022-12-22T01:52:13.560Z,1.90
2022-12-22T01:53:19.514Z,2.30
2022-12-22T01:54:15.494Z,2.30
2022-12-22T01:55:13.493Z,2.00
2022-12-22T01:56:13.553Z,2.40
2022-12-22T01:57:13.497Z,1.90
2022-12-22T01:58:13.481Z,2.00
2022-12-22T01:59:13.531Z,2.50
2022-12-22T02:00:13.440Z,2.10
2022-12-22T02:01:13.447Z,2.50
2022-12-22T02:02:13.586Z,2.10
2022-12-22T02:03:13.450Z,1.90
2022-12-22T02:04:13.471Z,2.80
2022-12-22T02:05:13.395Z,2.20
2022-12-22T02:06:13.399Z,2.50
2022-12-22T02:07:13.361Z,2.20
2022-12-22T02:08:13.419Z,2.60
2022-12-22T02:09:13.356Z,3.00
2022-12-22T02:10:13.431Z,2.70
2022-12-22T02:11:13.378Z,2.80
2022-12-22T02:12:13.382Z,2.50
2022-12-22T02:13:13.324Z,2.70
2022-12-22T02:14:13.361Z,2.70
2022-12-22T02:15:14.306Z,2.50
2022-12-22T02:16:13.363Z,2.80
2022-12-22T02:17:13.663Z,2.70
2022-12-22T02:18:13.265Z,2.70
2022-12-22T02:19:13.250Z,2.60
2022-12-22T02:20:13.307Z,3.10
2022-12-22T02:21:13.219Z,2.60
2022-12-22T02:22:13.388Z,2.70
2022-12-22T02:23:13.192Z,3.00
2022-12-22T02:24:13.241Z,2.80
2022-12-22T02:25:14.182Z,2.70
2022-12-22T02:26:13.176Z,2.80
2022-12-22T02:27:13.182Z,2.70
2022-12-22T02:28:13.201Z,3.00
2022-12-22T02:29:13.866Z,3.10
2022-12-22T02:30:13.117Z,2.70
2022-12-22T02:31:13.227Z,2.70
2022-12-22T02:32:13.132Z,2.70
2022-12-22T02:33:14.197Z,2.80
2022-12-22T02:34:13.111Z,2.70
2022-12-22T02:35:13.104Z,2.80
2022-12-22T02:36:13.111Z,2.40
2022-12-22T02:37:13.129Z,2.80
2022-12-22T02:38:13.115Z,2.40
2022-12-22T02:39:13.056Z,2.60
2022-12-22T02:40:13.082Z,2.70
2022-12-22T02:41:13.047Z,2.80
2022-12-22T02:42:13.062Z,2.70
2022-12-22T02:43:13.055Z,2.80
2022-12-22T02:44:13.012Z,2.90
2022-12-22T02:45:12.998Z,2.80
2022-12-22T02:46:12.995Z,2.60
2022-12-22T02:47:13.033Z,2.90
2022-12-22T02:48:13.112Z,2.80
2022-12-22T02:49:13.043Z,2.80
2022-12-22T02:50:13.006Z,2.30
2022-12-22T02:51:12.980Z,2.80
2022-12-22T02:52:13.929Z,2.90
2022-12-22T02:53:13.016Z,2.80
2022-12-22T02:54:13.076Z,2.70
2022-12-22T02:55:12.922Z,2.70
2022-12-22T02:56:12.878Z,2.90
2022-12-22T02:57:12.899Z,2.90
2022-12-22T02:58:12.967Z,2.60
2022-12-22T02:59:12.933Z,2.50
2022-12-22T03:00:12.874Z,2.60
2022-12-22T03:01:12.907Z,2.70
2022-12-22T03:02:12.960Z,3.30
2022-12-22T03:03:13.000Z,2.70
2022-12-22T03:04:12.852Z,3.20
2022-12-22T03:05:12.804Z,3.20
2022-12-22T03:06:12.924Z,2.50
2022-12-22T03:07:12.794Z,2.90
2022-12-22T03:08:12.823Z,3.00
2022-12-22T03:09:12.769Z,3.10
2022-12-22T03:10:12.727Z,2.90
2022-12-22T03:11:12.800Z,2.70
2022-12-22T03:12:12.738Z,2.90
2022-12-22T03:13:13.365Z,3.20
2022-12-22T03:14:12.714Z,2.50
2022-12-22T03:15:12.688Z,3.00
2022-12-22T03:16:13.682Z,2.40
2022-12-22T03:17:12.711Z,2.70
2022-12-22T03:18:12.675Z,3.20
2022-12-22T03:19:12.622Z,2.90
2022-12-22T03:20:13.366Z,2.90
2022-12-22T03:21:12.660Z,2.80
2022-12-22T03:22:12.675Z,2.60
2022-12-22T03:23:12.666Z,2.80
2022-12-22T03:24:12.598Z,2.70
2022-12-22T03:25:12.618Z,2.80
2022-12-22T03:26:12.580Z,2.60
2022-12-22T03:27:12.622Z,2.40
2022-12-22T03:28:12.565Z,2.40
2022-12-22T03:29:13.606Z,2.70
2022-12-22T03:30:12.579Z,2.60
2022-12-22T03:31:12.580Z,2.90
2022-12-22T03:32:12.557Z,2.60
2022-12-22T03:33:12.595Z,2.60
2022-12-22T03:34:12.533Z,2.60
2022-12-22T03:35:12.480Z,2.60
2022-12-22T03:36:12.502Z,2.60
2022-12-22T03:37:12.468Z,2.70
2022-12-22T03:38:12.551Z,2.40
2022-12-22T03:39:12.465Z,2.30
2022-12-22T03:40:12.463Z,2.10
2022-12-22T03:41:12.447Z,2.50
2022-12-22T03:55:38.227Z,1.60
2022-12-22T03:56:38.265Z,2.10
2022-12-22T03:57:39.484Z,2.50
2022-12-22T03:58:39.696Z,2.50
2022-12-22T03:59:39.405Z,3.00
2022-12-22T04:00:39.618Z,2.60
2022-12-22T04:01:40.055Z,2.60
2022-12-22T04:02:39.498Z,2.90
2022-12-22T04:03:39.390Z,2.10
2022-12-22T04:04:39.386Z,2.20
2022-12-22T04:05:39.322Z,2.50
2022-12-22T04:06:39.342Z,2.50
2022-12-22T04:07:39.279Z,2.00
2022-12-22T04:08:39.457Z,2.10
2022-12-22T04:09:39.256Z,2.90
2022-12-22T04:10:39.289Z,2.10
2022-12-22T04:11:39.272Z,2.00
2022-12-22T04:12:39.243Z,1.90
2022-12-22T04:13:39.246Z,2.00
2022-12-22T04:14:39.194Z,2.30
2022-12-22T04:15:39.235Z,1.80
2022-12-22T04:16:39.211Z,1.90
2022-12-22T04:17:39.206Z,2.20
2022-12-22T04:18:39.217Z,2.00
2022-12-22T04:19:39.159Z,2.10
2022-12-22T04:20:39.196Z,2.10
2022-12-22T04:21:39.139Z,2.20
2022-12-22T04:22:39.135Z,1.70
2022-12-22T04:23:39.133Z,1.80
2022-12-22T04:24:39.108Z,2.00
2022-12-22T04:25:39.098Z,1.90
2022-12-22T04:26:39.143Z,1.70
2022-12-22T04:27:39.088Z,1.70
2022-12-22T04:28:39.111Z,1.90
2022-12-22T04:29:39.075Z,1.70
2022-12-22T04:30:39.052Z,1.60
2022-12-22T04:31:39.042Z,1.70
2022-12-22T04:32:39.069Z,1.50
2022-12-22T04:33:39.120Z,1.70
2022-12-22T04:34:39.001Z,1.30
2022-12-22T04:35:39.003Z,1.40
2022-12-22T04:36:39.017Z,1.50
2022-12-22T04:37:39.008Z,1.20
2022-12-22T04:38:38.971Z,1.40
2022-12-22T04:39:39.013Z,1.50
2022-12-22T04:40:39.093Z,1.30
2022-12-22T04:41:38.941Z,1.50
2022-12-22T04:42:38.947Z,1.40
2022-12-22T04:43:38.884Z,1.50
2022-12-22T04:44:38.986Z,1.30
2022-12-22T04:45:38.933Z,1.50
2022-12-22T04:46:38.929Z,1.50
2022-12-22T04:47:38.904Z,1.20
2022-12-22T04:48:38.909Z,1.50
2022-12-22T04:49:38.890Z,1.40
2022-12-22T04:50:38.835Z,1.60
2022-12-22T04:51:38.832Z,1.30
2022-12-22T04:52:38.829Z,1.20
2022-12-22T04:53:38.842Z,1.30
2022-12-22T04:54:38.817Z,1.40
2022-12-22T04:55:38.829Z,1.20
2022-12-22T04:56:38.850Z,1.20
2022-12-22T04:57:40.839Z,1.20
2022-12-22T04:58:39.950Z,1.10
2022-12-22T04:59:38.764Z,1.20
2022-12-22T05:00:38.754Z,1.10
2022-12-22T05:01:38.804Z,1.10
2022-12-22T05:02:38.774Z,1.20
2022-12-22T05:03:38.914Z,1.00
2022-12-22T05:04:38.766Z,1.20
2022-12-22T05:05:38.701Z,1.00
2022-12-22T05:06:38.697Z,1.40
2022-12-22T05:07:38.667Z,1.10
2022-12-22T05:08:38.708Z,0.80
2022-12-22T05:09:38.698Z,0.80
2022-12-22T05:10:38.712Z,0.80
2022-12-22T05:11:38.647Z,0.80
2022-12-22T05:12:38.623Z,0.90
2022-12-22T05:13:38.631Z,0.90
2022-12-22T05:14:38.636Z,0.90
2022-12-22T05:15:38.674Z,0.80
2022-12-22T05:16:38.630Z,0.80
2022-12-22T05:17:38.633Z,0.90
2022-12-22T05:18:38.662Z,0.90
2022-12-22T05:19:38.654Z,0.90
2022-12-22T05:20:38.506Z,0.90
2022-12-22T05:21:38.584Z,1.10
2022-12-22T05:22:38.677Z,1.00
2022-12-22T05:23:38.539Z,0.80
2022-12-22T05:24:38.617Z,1.00
2022-12-22T05:25:38.478Z,0.80
2022-12-22T05:26:38.538Z,0.90
2022-12-22T05:27:38.511Z,1.00
2022-12-22T05:28:38.618Z,0.90
2022-12-22T05:29:38.898Z,0.80
2022-12-22T05:30:38.469Z,1.00
2022-12-22T05:31:41.862Z,0.80
2022-12-22T05:32:40.491Z,1.00
2022-12-22T05:33:38.429Z,0.80
2022-12-22T05:34:38.430Z,0.90
2022-12-22T05:35:38.423Z,0.80
2022-12-22T05:36:38.416Z,0.70
2022-12-22T05:37:38.381Z,1.00
2022-12-22T05:38:38.355Z,0.70
2022-12-22T05:39:38.402Z,0.90
2022-12-22T05:40:38.333Z,0.90
2022-12-22T05:41:38.324Z,0.90
2022-12-22T05:42:38.369Z,0.90
2022-12-22T05:43:38.348Z,0.80
2022-12-22T05:44:38.346Z,0.80
2022-12-22T05:45:38.277Z,0.90
2022-12-22T05:46:38.358Z,0.70
2022-12-22T05:47:38.332Z,0.80
2022-12-22T05:48:39.325Z,0.70
2022-12-22T05:49:39.481Z,0.80
2022-12-22T05:50:38.300Z,0.80
2022-12-22T05:51:38.282Z,1.00
2022-12-22T05:52:38.271Z,0.90
2022-12-22T05:53:38.253Z,0.70
2022-12-22T05:54:38.284Z,0.80
2022-12-22T05:55:38.257Z,0.70
2022-12-22T05:56:38.312Z,0.70
2022-12-22T05:57:38.211Z,0.60
2022-12-22T05:58:38.343Z,0.90
2022-12-22T05:59:38.192Z,0.70
2022-12-22T06:00:38.248Z,0.70
2022-12-22T06:01:38.329Z,0.70
2022-12-22T06:02:38.314Z,0.60
2022-12-22T06:03:38.306Z,0.70
2022-12-22T06:04:38.167Z,0.60
2022-12-22T06:05:38.334Z,0.70
2022-12-22T06:06:38.126Z,0.80
2022-12-22T06:07:38.179Z,0.70
2022-12-22T06:08:38.340Z,0.60
2022-12-22T06:09:38.118Z,0.70
2022-12-22T06:10:38.181Z,0.80
2022-12-22T06:11:38.944Z,0.60
2022-12-22T06:12:38.122Z,0.70
2022-12-22T06:13:38.075Z,0.60
2022-12-22T06:14:38.092Z,0.60
2022-12-22T06:15:38.198Z,0.80
2022-12-22T06:16:38.117Z,0.80
2022-12-22T06:17:44.435Z,0.70
2022-12-22T06:18:39.011Z,0.70
2022-12-22T06:19:37.998Z,0.80
2022-12-22T06:20:38.406Z,0.80
2022-12-22T06:21:37.984Z,0.70
2022-12-22T06:22:37.954Z,0.80
2022-12-22T06:23:37.928Z,0.90
2022-12-22T06:24:38.046Z,0.70
2022-12-22T06:25:37.993Z,1.00
2022-12-22T06:26:38.872Z,0.70
2022-12-22T06:27:38.816Z,0.70
2022-12-22T06:28:37.989Z,0.70
2022-12-22T06:29:37.901Z,0.80
2022-12-22T06:30:37.920Z,0.70
2022-12-22T06:31:37.938Z,0.80
2022-12-22T06:32:37.850Z,0.70
2022-12-22T06:33:37.912Z,0.70
2022-12-22T06:34:37.947Z,0.70
2022-12-22T06:35:37.798Z,0.80
2022-12-22T06:36:37.830Z,0.70
2022-12-22T06:37:37.829Z,0.80
2022-12-22T06:38:37.828Z,0.60
2022-12-22T06:39:37.810Z,0.80
2022-12-22T06:40:37.817Z,0.70
2022-12-22T06:41:37.769Z,0.80
2022-12-22T06:42:37.799Z,0.80
2022-12-22T06:43:37.721Z,0.70
2022-12-22T06:44:37.723Z,0.60
2022-12-22T06:45:37.812Z,0.60
2022-12-22T06:46:37.841Z,0.70
2022-12-22T06:47:37.718Z,0.70
2022-12-22T06:48:38.660Z,0.70
2022-12-22T06:49:37.677Z,0.60
2022-12-22T06:50:37.715Z,0.90
2022-12-22T06:51:37.701Z,0.80
2022-12-22T06:52:38.207Z,0.80
2022-12-22T06:53:37.660Z,0.80
2022-12-22T06:54:37.657Z,1.00
2022-12-22T06:55:37.663Z,0.80
2022-12-22T06:56:37.674Z,1.00
2022-12-22T06:57:37.689Z,1.10
2022-12-22T06:58:37.643Z,1.00
2022-12-22T06:59:37.725Z,1.10
2022-12-22T07:00:37.619Z,1.00
2022-12-22T07:01:37.694Z,0.90
2022-12-22T07:02:37.801Z,1.10
2022-12-22T07:03:37.551Z,1.30
2022-12-22T07:04:38.563Z,1.50
2022-12-22T07:05:37.556Z,1.20
2022-12-22T07:06:37.540Z,1.20
2022-12-22T07:07:37.530Z,1.20
2022-12-22T07:08:37.521Z,1.10
2022-12-22T07:09:37.540Z,1.30
2022-12-22T07:10:37.515Z,1.20
2022-12-22T07:11:38.384Z,1.40
2022-12-22T07:12:37.522Z,1.30
2022-12-22T07:13:38.459Z,1.30
2022-12-22T07:14:37.459Z,1.50
2022-12-22T07:15:37.525Z,1.60
2022-12-22T07:16:37.490Z,1.40
2022-12-22T07:17:37.442Z,1.60
2022-12-22T07:18:37.443Z,1.70
2022-12-22T07:19:37.374Z,1.40
2022-12-22T07:20:37.431Z,1.40
2022-12-22T07:21:37.454Z,1.40
2022-12-22T07:22:37.450Z,1.60
2022-12-22T07:23:37.389Z,1.50
2022-12-22T07:24:37.330Z,1.70
2022-12-22T07:25:37.349Z,1.70
2022-12-22T07:26:37.372Z,1.90
2022-12-22T07:27:37.349Z,1.60
2022-12-22T07:28:37.314Z,1.80
2022-12-22T07:29:37.385Z,1.50
2022-12-22T07:30:37.385Z,1.60
2022-12-22T07:31:37.335Z,1.60
2022-12-22T07:32:37.263Z,1.50
2022-12-22T07:33:37.276Z,1.70
2022-12-22T07:34:37.385Z,1.70
2022-12-22T07:35:37.282Z,1.70
2022-12-22T07:36:37.191Z,1.50
2022-12-22T07:37:37.267Z,1.30
2022-12-22T07:38:37.213Z,1.50
2022-12-22T07:39:37.154Z,1.10
2022-12-22T07:40:41.780Z,1.20
2022-12-22T07:41:38.249Z,1.60
2022-12-22T07:42:37.169Z,1.50
2022-12-22T07:43:37.221Z,1.20
2022-12-22T07:44:37.187Z,1.50
2022-12-22T07:45:37.263Z,1.30
2022-12-22T07:46:37.235Z,1.10
2022-12-22T07:47:37.103Z,1.30
2022-12-22T07:48:37.148Z,1.20
2022-12-22T07:49:37.127Z,1.30
2022-12-22T07:50:37.126Z,1.40
2022-12-22T07:51:37.073Z,1.00
2022-12-22T07:52:37.156Z,1.10
2022-12-22T07:53:37.036Z,1.00
2022-12-22T07:54:41.792Z,1.10
2022-12-22T07:55:39.041Z,1.10
2022-12-22T07:56:37.044Z,0.80
2022-12-22T07:57:37.067Z,1.00
2022-12-22T07:58:36.973Z,1.00
2022-12-22T07:59:37.700Z,1.00
2022-12-22T08:00:37.032Z,1.00
2022-12-22T08:01:37.040Z,0.80
2022-12-22T08:02:39.032Z,0.70
2022-12-22T08:03:37.975Z,0.80
2022-12-22T08:04:37.136Z,0.90
2022-12-22T08:05:36.907Z,0.80
2022-12-22T08:06:36.968Z,0.60
2022-12-22T08:07:36.898Z,0.70
2022-12-22T08:08:36.872Z,0.80
2022-12-22T08:09:36.900Z,0.80
2022-12-22T08:10:36.918Z,0.70
2022-12-22T08:11:36.989Z,1.00
2022-12-22T08:12:36.928Z,0.50
2022-12-22T08:13:36.910Z,0.70
2022-12-22T08:14:36.961Z,0.70
2022-12-22T08:15:36.874Z,0.60
2022-12-22T08:16:36.985Z,0.70
2022-12-22T08:17:36.860Z,0.80
2022-12-22T08:18:36.776Z,0.70
2022-12-22T08:19:36.839Z,0.80
2022-12-22T08:20:36.771Z,0.80
2022-12-22T08:21:36.853Z,0.60
2022-12-22T08:22:36.837Z,0.50
2022-12-22T08:23:36.804Z,0.50
2022-12-22T08:24:36.733Z,0.50
2022-12-22T08:25:36.786Z,0.50
2022-12-22T08:26:36.753Z,0.80
2022-12-22T08:27:36.801Z,0.50
2022-12-22T08:28:36.719Z,0.60
2022-12-22T08:29:36.783Z,0.50
2022-12-22T08:30:36.711Z,0.50
2022-12-22T08:31:36.731Z,0.30
2022-12-22T08:32:36.800Z,0.50
2022-12-22T08:33:36.695Z,0.40
2022-12-22T08:34:36.699Z,0.40
2022-12-22T08:35:36.660Z,0.40
2022-12-22T08:36:36.699Z,0.20
2022-12-22T08:37:36.597Z,0.30
2022-12-22T08:38:36.638Z,0.20
2022-12-22T08:39:36.601Z,0.30
2022-12-22T08:40:36.591Z,0.20
2022-12-22T08:41:36.661Z,0.30
2022-12-22T08:42:36.577Z,0.20
2022-12-22T08:43:36.684Z,0.20
2022-12-22T08:44:36.557Z,0.20
2022-12-22T08:45:36.539Z,0.20
2022-12-22T08:46:36.676Z,0.20
2022-12-22T08:47:36.592Z,0.30
2022-12-22T08:48:36.547Z,0.30
2022-12-22T08:49:36.471Z,0.30
2022-12-22T08:50:36.532Z,0.30
2022-12-22T08:51:36.518Z,0.20
2022-12-22T08:52:36.451Z,0.20
2022-12-22T08:54:05.888Z,0.30
2022-12-22T08:54:38.444Z,0.20
2022-12-22T08:55:36.609Z,0.30
2022-12-22T08:56:36.449Z,0.20
2022-12-22T08:57:36.365Z,0.20
2022-12-22T08:58:36.482Z,0.20
2022-12-22T08:59:36.441Z,0.30
2022-12-22T09:00:36.458Z,0.40
2022-12-22T09:01:36.610Z,0.30
2022-12-22T09:02:37.463Z,0.40
2022-12-22T09:03:36.344Z,0.30
2022-12-22T09:04:36.354Z,0.20
2022-12-22T09:05:36.351Z,0.20
2022-12-22T09:06:40.916Z,0.30
2022-12-22T09:07:37.315Z,0.30
2022-12-22T09:08:36.290Z,0.20
2022-12-22T09:09:36.297Z,0.30
2022-12-22T09:10:36.265Z,0.20
2022-12-22T09:11:36.304Z,0.30
2022-12-22T09:12:36.312Z,0.30
2022-12-22T09:13:36.226Z,0.20
2022-12-22T09:14:36.271Z,0.40
2022-12-22T09:15:36.239Z,0.40
2022-12-22T09:16:36.326Z,0.20
2022-12-22T09:17:36.246Z,0.30
2022-12-22T09:18:36.178Z,0.30
2022-12-22T09:19:36.179Z,0.10
2022-12-22T09:20:36.334Z,0.20
2022-12-22T09:21:36.151Z,0.20
2022-12-22T09:22:36.222Z,0.20
2022-12-22T09:23:36.165Z,0.20
2022-12-22T09:24:36.132Z,0.20
2022-12-22T09:25:36.119Z,0.20
2022-12-22T09:26:36.158Z,0.20
2022-12-22T09:27:36.246Z,0.30
2022-12-22T09:28:36.047Z,0.30
2022-12-22T09:29:36.093Z,0.20
2022-12-22T09:30:36.096Z,0.20
2022-12-22T09:31:36.082Z,0.20
2022-12-22T09:32:36.804Z,0.30
2022-12-22T09:33:36.095Z,0.20
2022-12-22T09:34:36.153Z,0.10
2022-12-22T09:35:36.011Z,0.20
2022-12-22T09:36:35.961Z,0.20
2022-12-22T09:37:36.007Z,0.20
2022-12-22T09:38:35.983Z,0.20
2022-12-22T09:39:36.140Z,0.20
2022-12-22T09:40:36.330Z,0.10
2022-12-22T09:41:35.949Z,0.10
2022-12-22T09:42:36.092Z,0.10
2022-12-22T09:43:35.967Z,0.20
2022-12-22T09:44:36.015Z,0.30
2022-12-22T09:45:35.962Z,0.20
2022-12-22T09:46:35.990Z,0.20
2022-12-22T09:47:36.051Z,0.10
2022-12-22T09:48:35.957Z,0.60
2022-12-22T09:49:35.938Z,0.10
2022-12-22T09:50:35.968Z,0.10
2022-12-22T09:51:35.992Z,0.20
2022-12-22T09:52:36.055Z,0.20
2022-12-22T09:53:35.922Z,0.20
2022-12-22T09:54:35.865Z,0.10
2022-12-22T09:55:36.908Z,0.20
2022-12-22T09:56:35.901Z,0.20
2022-12-22T09:57:35.992Z,0.10
2022-12-22T09:58:35.790Z,0.10
2022-12-22T09:59:35.769Z,0.20
2022-12-22T10:00:35.831Z,0.10
2022-12-22T10:01:35.850Z,0.10
2022-12-22T10:02:35.983Z,0.20
2022-12-22T10:03:35.849Z,0.20
2022-12-22T10:04:35.829Z,0.10
2022-12-22T10:05:35.785Z,0.10
2022-12-22T10:06:35.710Z,0.20
2022-12-22T10:07:35.748Z,0.20
2022-12-22T10:08:35.684Z,0.30
2022-12-22T10:09:49.482Z,0.10
2022-12-22T10:10:37.711Z,0.20
2022-12-22T10:11:35.767Z,0.20
2022-12-22T10:12:35.672Z,0.10
2022-12-22T10:13:35.707Z,0.10
2022-12-22T10:14:35.636Z,0.20
2022-12-22T10:15:35.617Z,0.20
2022-12-22T10:16:35.842Z,0.10
2022-12-22T10:17:35.677Z,0.30
2022-12-22T10:18:35.623Z,0.20
2022-12-22T10:19:35.652Z,0.20
2022-12-22T10:20:35.690Z,0.20
2022-12-22T10:21:37.858Z,0.20
2022-12-22T10:22:36.576Z,0.20
2022-12-22T10:23:36.343Z,0.10
2022-12-22T10:24:35.546Z,0.10
2022-12-22T10:26:08.785Z,0.10
2022-12-22T10:26:37.553Z,0.20
2022-12-22T10:27:40.487Z,0.10
2022-12-22T10:28:37.486Z,0.20
2022-12-22T10:29:35.540Z,0.20
2022-12-22T10:30:35.552Z,0.10
2022-12-22T10:31:35.528Z,0.20
2022-12-22T10:32:35.476Z,0.10
2022-12-22T10:33:36.974Z,0.20
2022-12-22T10:34:35.429Z,0.10
2022-12-22T10:35:35.424Z,0.10
2022-12-22T10:36:35.460Z,0.10
2022-12-22T10:37:35.408Z,0.20
2022-12-22T10:38:35.403Z,0.20
2022-12-22T10:39:35.404Z,0.10
2022-12-22T10:40:35.354Z,0.20
2022-12-22T10:41:35.396Z,0.10
2022-12-22T10:42:35.389Z,0.10
2022-12-22T10:43:35.323Z,0.10
2022-12-22T10:44:35.337Z,0.10
2022-12-22T10:45:35.345Z,0.10
2022-12-22T10:46:35.445Z,0.10
2022-12-22T10:47:35.352Z,0.20
2022-12-22T10:48:35.452Z,0.10
2022-12-22T10:51:27.608Z,0.10
2022-12-22T10:52:30.463Z,0.20
2022-12-22T10:53:27.577Z,0.20
2022-12-22T10:54:27.682Z,0.10
2022-12-22T10:55:27.499Z,0.10
2022-12-22T10:56:27.479Z,0.20
2022-12-22T10:57:27.435Z,0.20
2022-12-22T10:58:27.492Z,0.30
2022-12-22T10:59:27.450Z,0.10
2022-12-22T11:00:28.658Z,0.30
2022-12-22T11:01:28.716Z,0.10
2022-12-22T11:02:28.857Z,0.20
2022-12-22T11:03:28.792Z,0.10
2022-12-22T11:04:28.580Z,0.10
2022-12-22T11:05:28.566Z,0.20
2022-12-22T11:06:28.537Z,0.10
2022-12-22T11:07:28.739Z,0.10
2022-12-22T11:08:28.630Z,0.20
2022-12-22T11:09:35.937Z,0.10
2022-12-22T11:10:30.504Z,0.20
2022-12-22T11:11:28.517Z,0.10
2022-12-22T11:12:28.532Z,0.20
2022-12-22T11:13:28.490Z,0.30
2022-12-22T11:14:28.994Z,0.30
2022-12-22T11:15:28.468Z,0.30
2022-12-22T11:16:28.510Z,0.20
2022-12-22T11:17:28.430Z,0.20
2022-12-22T11:18:28.453Z,0.20
2022-12-22T11:19:28.393Z,0.10
2022-12-22T11:20:28.389Z,0.20
2022-12-22T11:21:28.423Z,0.20
2022-12-22T11:22:28.414Z,0.20
2022-12-22T11:23:28.395Z,0.10
2022-12-22T11:24:28.384Z,0.20
2022-12-22T11:25:28.364Z,0.20
2022-12-22T11:26:28.334Z,0.20
2022-12-22T11:27:28.334Z,0.20
2022-12-22T11:28:28.361Z,0.20
2022-12-22T11:29:28.312Z,0.20
2022-12-22T11:30:28.291Z,0.20
2022-12-22T11:31:28.426Z,0.30
2022-12-22T11:32:28.277Z,0.30
2022-12-22T11:33:28.273Z,0.20
2022-12-22T11:34:28.270Z,0.20
2022-12-22T11:35:28.520Z,0.30
2022-12-22T11:36:28.255Z,0.20
2022-12-22T11:37:28.254Z,0.20
2022-12-22T11:38:29.271Z,0.20
2022-12-22T11:39:28.290Z,0.30
2022-12-22T11:40:28.197Z,0.40
2022-12-22T11:41:28.227Z,0.20
2022-12-22T11:42:28.184Z,0.20
2022-12-22T11:43:28.174Z,0.10
2022-12-22T11:44:29.015Z,0.30
2022-12-22T11:45:28.169Z,0.30
2022-12-22T11:46:28.167Z,0.30
2022-12-22T11:47:28.142Z,0.20
2022-12-22T11:48:28.173Z,0.10
2022-12-22T11:49:28.111Z,0.40
2022-12-22T11:50:58.847Z,0.20
2022-12-22T11:51:29.102Z,0.30
2022-12-22T11:52:28.049Z,0.20
2022-12-22T11:53:28.062Z,0.20
2022-12-22T11:54:28.100Z,0.30
2022-12-22T11:55:28.178Z,0.30
2022-12-22T11:56:28.021Z,0.30
2022-12-22T11:57:28.027Z,0.30
2022-12-22T11:58:28.040Z,0.30
2022-12-22T11:59:28.011Z,0.50
2022-12-22T12:00:48.974Z,0.30
2022-12-22T12:01:30.083Z,0.30
2022-12-22T12:02:28.332Z,0.40
2022-12-22T12:03:28.175Z,0.30
2022-12-22T12:04:28.098Z,0.30
2022-12-22T12:05:27.975Z,0.40
2022-12-22T12:06:27.977Z,0.20
2022-12-22T12:07:27.913Z,0.30
2022-12-22T12:08:27.919Z,0.30
2022-12-22T12:09:27.954Z,0.40
2022-12-22T12:10:27.914Z,0.20
2022-12-22T12:11:28.494Z,0.30
2022-12-22T12:12:27.883Z,0.20
2022-12-22T12:13:34.774Z,0.30
2022-12-22T12:14:29.859Z,0.40
2022-12-22T12:15:27.861Z,0.40
2022-12-22T12:16:28.927Z,0.30
2022-12-22T12:17:27.831Z,0.40
2022-12-22T12:18:27.822Z,0.40
2022-12-22T12:19:28.521Z,0.30
2022-12-22T12:20:27.794Z,0.30
2022-12-22T12:21:27.788Z,0.30
2022-12-22T12:22:27.818Z,0.20
2022-12-22T12:23:28.363Z,0.20
2022-12-22T12:24:27.753Z,0.20
2022-12-22T12:25:27.757Z,0.40
2022-12-22T12:26:27.696Z,0.30
2022-12-22T12:27:27.714Z,0.30
2022-12-22T12:28:28.763Z,0.20
2022-12-22T12:29:27.722Z,0.30
2022-12-22T12:30:39.866Z,0.20
2022-12-22T12:31:29.739Z,0.30
2022-12-22T12:32:27.670Z,0.20
2022-12-22T12:33:27.677Z,0.30
2022-12-22T12:34:27.662Z,0.30
2022-12-22T12:35:27.670Z,0.20
2022-12-22T12:36:27.655Z,0.20
2022-12-22T12:37:27.650Z,0.30
2022-12-22T12:39:05.496Z,0.20
2022-12-22T12:39:29.613Z,0.30
2022-12-22T12:40:27.575Z,0.30
2022-12-22T12:41:27.564Z,0.30
2022-12-22T12:42:27.574Z,0.30
2022-12-22T12:43:27.588Z,0.20
2022-12-22T12:44:27.579Z,0.30
2022-12-22T12:45:27.524Z,0.20
2022-12-22T12:46:27.549Z,0.40
2022-12-22T12:47:27.479Z,0.30
2022-12-22T12:48:27.523Z,0.40
2022-12-22T12:49:27.478Z,0.30
2022-12-22T12:50:27.489Z,0.50
2022-12-22T12:51:27.449Z,0.30
2022-12-22T12:52:27.433Z,0.30
2022-12-22T12:53:27.395Z,0.20
2022-12-22T12:54:27.432Z,0.30
2022-12-22T12:55:31.859Z,0.20
2022-12-22T12:56:29.435Z,0.20
2022-12-22T12:57:27.388Z,0.20
2022-12-22T12:58:27.390Z,0.30
2022-12-22T12:59:27.446Z,0.20
2022-12-22T13:00:27.487Z,0.20
2022-12-22T13:01:27.462Z,0.10
2022-12-22T13:02:27.873Z,0.20
2022-12-22T13:04:01.254Z,0.20
2022-12-22T13:04:29.514Z,0.20
2022-12-22T13:05:28.036Z,0.30
2022-12-22T13:06:27.353Z,0.20
2022-12-22T13:07:27.360Z,0.20
2022-12-22T13:08:27.272Z,0.30
2022-12-22T13:10:29.888Z,0.20
2022-12-22T13:12:01.677Z,0.30
2022-12-22T13:12:29.330Z,0.30
2022-12-22T13:13:27.245Z,0.20
2022-12-22T13:14:27.302Z,0.30
2022-12-22T13:15:27.317Z,0.30
2022-12-22T13:16:27.372Z,0.30
2022-12-22T13:17:27.308Z,0.20
2022-12-22T13:18:27.204Z,0.30
2022-12-22T13:19:27.268Z,0.20
2022-12-22T13:20:27.187Z,0.40
2022-12-22T13:21:52.303Z,0.40
2022-12-22T13:22:29.180Z,0.30
2022-12-22T13:23:27.281Z,0.40
2022-12-22T13:24:28.607Z,0.40
2022-12-22T13:25:28.389Z,0.30
2022-12-22T13:26:27.125Z,0.40
2022-12-22T13:27:27.113Z,0.30
2022-12-22T13:28:27.970Z,0.30
2022-12-22T13:29:27.128Z,0.20
2022-12-22T13:30:27.123Z,0.50
2022-12-22T13:31:27.162Z,0.30
2022-12-22T13:32:27.062Z,0.30
2022-12-22T13:33:27.107Z,0.30
2022-12-22T13:34:27.026Z,0.30